Terminal Aerodrome Forecast
Issued by NWS

Current Version | Previous Version | Graphics & Text | Print | Product List | Glossary On
Versions: 1 2 3 4 5 6 7 8 9 10 11 12 13 14 15 16 17 18 19
000
FTUS41 KPBZ 290815 AAB
TAFHLG
TAF AMD
KHLG 290815Z 2908/3006 VRB03KT P6SM SCT250
      TEMPO 2910/2912 5SM BR
     FM291400 20005KT P6SM SCT040
     FM300400 28005KT P6SM VCSH BKN035=

USA.gov is the U.S. government's official web portal to all federal, state and local government web resources and services.